Time;durP1;ratioP1;P1;durP2;ratioP2;P2;SDS_P1;SDS_P2;PMS_P1;PMS_P2;Temp;Humidity;BMP_temperature;BMP_pressure;BME280_temperature;BME280_humidity;BME280_pressure;Samples;Min_cycle;Max_cycle;Signal;HPM_P1;HPM_P2
2023/12/19 00:01:38;;;;;;;35.17;19.50;;;;;;;;;;4996511;28;20033;-63
2023/12/19 00:04:06;;;;;;;33.97;19.08;;;;;;;;;;4995446;28;20112;-63
2023/12/19 00:06:32;;;;;;;34.15;19.23;;;;;;;;;;5010014;28;20046;-63
2023/12/19 00:08:58;;;;;;;29.42;18.13;;;;;;;;;;4997077;28;20035;-63
2023/12/19 00:11:24;;;;;;;31.27;18.70;;;;;;;;;;4997595;28;20045;-63
2023/12/19 00:13:50;;;;;;;29.92;18.25;;;;;;;;;;4998609;28;20037;-63
2023/12/19 00:16:16;;;;;;;25.42;17.75;;;;;;;;;;4996224;28;20111;-63
2023/12/19 00:18:42;;;;;;;28.85;17.75;;;;;;;;;;4995898;28;20044;-63
2023/12/19 00:21:08;;;;;;;29.52;17.67;;;;;;;;;;4999635;28;20025;-63
2023/12/19 00:23:34;;;;;;;28.38;18.70;;;;;;;;;;5001035;28;20026;-63
2023/12/19 00:26:00;;;;;;;28.13;17.45;;;;;;;;;;5000758;28;20900;-63
2023/12/19 00:28:27;;;;;;;27.27;18.95;;;;;;;;;;4998797;28;20045;-63
2023/12/19 00:30:56;;;;;;;32.72;18.83;;;;;;;;;;5016182;28;20033;-63
2023/12/19 00:33:22;;;;;;;33.22;20.00;;;;;;;;;;5000356;28;20033;-63
2023/12/19 00:35:48;;;;;;;28.27;18.23;;;;;;;;;;5000455;28;20022;-63
2023/12/19 00:38:15;;;;;;;27.30;19.25;;;;;;;;;;4999712;28;20063;-63
2023/12/19 00:40:41;;;;;;;29.90;18.92;;;;;;;;;;4999053;28;20037;-63
2023/12/19 00:43:07;;;;;;;32.40;19.00;;;;;;;;;;5000093;28;20029;-63
2023/12/19 00:45:33;;;;;;;23.95;17.52;;;;;;;;;;4999253;28;20336;-63
2023/12/19 00:47:59;;;;;;;30.35;18.30;;;;;;;;;;4999360;28;20044;-63
2023/12/19 00:50:25;;;;;;;29.33;17.80;;;;;;;;;;4999118;28;20041;-63
2023/12/19 00:52:51;;;;;;;31.45;19.52;;;;;;;;;;4999267;28;20038;-63
2023/12/19 00:55:17;;;;;;;28.25;18.98;;;;;;;;;;5000092;28;20037;-63
2023/12/19 00:57:43;;;;;;;29.33;19.25;;;;;;;;;;5000089;28;21464;-63
2023/12/19 01:00:09;;;;;;;31.10;19.17;;;;;;;;;;4998472;28;20580;-63
2023/12/19 01:02:35;;;;;;;30.33;17.48;;;;;;;;;;4999780;28;21301;-63
2023/12/19 01:05:01;;;;;;;24.95;17.77;;;;;;;;;;5000230;28;20056;-63
2023/12/19 01:07:27;;;;;;;29.02;19.35;;;;;;;;;;4999997;28;20099;-63
2023/12/19 01:09:54;;;;;;;28.23;17.35;;;;;;;;;;4997209;28;20037;-63
2023/12/19 01:12:20;;;;;;;30.65;18.98;;;;;;;;;;4998313;28;20037;-63
2023/12/19 01:14:46;;;;;;;27.50;17.00;;;;;;;;;;4999441;28;20119;-63
2023/12/19 01:17:12;;;;;;;29.50;17.52;;;;;;;;;;5000571;28;20040;-63
2023/12/19 01:19:38;;;;;;;22.40;16.15;;;;;;;;;;4999473;28;20033;-63
2023/12/19 01:22:05;;;;;;;26.33;17.80;;;;;;;;;;4999837;28;21300;-63
2023/12/19 01:24:31;;;;;;;26.02;17.10;;;;;;;;;;5014189;28;21807;-63
2023/12/19 01:26:57;;;;;;;26.20;16.25;;;;;;;;;;4998849;28;20036;-63
2023/12/19 01:29:23;;;;;;;25.02;15.70;;;;;;;;;;4999036;28;20056;-63
2023/12/19 01:31:49;;;;;;;24.65;16.65;;;;;;;;;;4998230;28;20107;-63
2023/12/19 01:34:15;;;;;;;26.20;16.77;;;;;;;;;;4999202;28;20120;-63
2023/12/19 01:36:42;;;;;;;23.30;15.55;;;;;;;;;;5014577;28;20041;-63
2023/12/19 01:39:08;;;;;;;25.80;17.02;;;;;;;;;;4998381;28;20853;-63
2023/12/19 01:41:34;;;;;;;23.05;15.32;;;;;;;;;;4998138;28;20088;-63
2023/12/19 01:44:01;;;;;;;19.75;14.60;;;;;;;;;;4999403;28;20026;-63
2023/12/19 01:46:27;;;;;;;21.55;14.85;;;;;;;;;;4999568;28;20034;-63
2023/12/19 01:48:54;;;;;;;24.75;15.32;;;;;;;;;;4998725;28;20057;-63
2023/12/19 01:51:20;;;;;;;19.95;13.93;;;;;;;;;;4999190;28;20040;-63
2023/12/19 01:53:47;;;;;;;22.50;15.02;;;;;;;;;;4999110;28;20037;-63
2023/12/19 01:56:13;;;;;;;19.60;13.88;;;;;;;;;;4998741;28;20697;-62
2023/12/19 01:58:40;;;;;;;20.90;13.77;;;;;;;;;;4998362;28;20041;-62
2023/12/19 02:01:06;;;;;;;20.95;14.85;;;;;;;;;;4997996;28;20700;-63
2023/12/19 02:03:33;;;;;;;20.67;13.70;;;;;;;;;;4997632;28;20029;-62
2023/12/19 02:05:59;;;;;;;18.67;12.60;;;;;;;;;;4999219;28;20156;-63
2023/12/19 02:08:27;;;;;;;18.88;13.20;;;;;;;;;;4999049;28;20163;-63
2023/12/19 02:10:53;;;;;;;18.67;12.38;;;;;;;;;;4998745;28;20084;-63
2023/12/19 02:13:21;;;;;;;17.15;12.45;;;;;;;;;;4996879;28;20458;-63
2023/12/19 02:15:47;;;;;;;18.73;13.25;;;;;;;;;;4999312;28;20025;-63
2023/12/19 02:18:17;;;;;;;17.15;12.00;;;;;;;;;;4995385;28;21089;-62
2023/12/19 02:20:43;;;;;;;21.13;14.00;;;;;;;;;;4997326;28;21034;-63
2023/12/19 02:23:10;;;;;;;18.88;13.75;;;;;;;;;;4998835;28;20029;-63
2023/12/19 02:25:36;;;;;;;19.48;13.68;;;;;;;;;;4998813;28;20057;-63
2023/12/19 02:28:02;;;;;;;17.73;12.93;;;;;;;;;;4999098;28;20038;-62
2023/12/19 02:30:28;;;;;;;19.38;13.70;;;;;;;;;;4998401;28;21781;-62
2023/12/19 02:32:54;;;;;;;18.42;12.75;;;;;;;;;;4996961;28;20045;-62
2023/12/19 02:35:20;;;;;;;19.00;12.85;;;;;;;;;;4998636;28;20041;-63
2023/12/19 02:37:47;;;;;;;17.25;12.13;;;;;;;;;;4992882;28;20053;-63
2023/12/19 02:40:13;;;;;;;16.80;11.48;;;;;;;;;;4998702;28;20033;-63
2023/12/19 02:42:42;;;;;;;17.92;12.40;;;;;;;;;;4996615;28;20513;-63
2023/12/19 02:45:09;;;;;;;16.63;11.85;;;;;;;;;;4997365;28;20246;-63
2023/12/19 02:47:35;;;;;;;19.33;12.48;;;;;;;;;;4998906;28;20103;-62
2023/12/19 02:50:02;;;;;;;16.38;11.30;;;;;;;;;;5013897;28;20037;-63
2023/12/19 02:52:28;;;;;;;15.27;10.48;;;;;;;;;;4997414;28;20062;-63
2023/12/19 02:54:54;;;;;;;18.23;12.38;;;;;;;;;;4996665;28;20147;-63
2023/12/19 02:57:20;;;;;;;15.07;10.70;;;;;;;;;;4998603;28;20135;-63
2023/12/19 02:59:46;;;;;;;15.18;10.52;;;;;;;;;;4997775;28;20049;-63
2023/12/19 03:02:12;;;;;;;14.15;9.80;;;;;;;;;;4996870;28;20033;-62
2023/12/19 03:04:39;;;;;;;13.90;10.43;;;;;;;;;;4997513;28;20030;-62
2023/12/19 03:07:05;;;;;;;15.27;10.52;;;;;;;;;;4998489;28;20025;-62
2023/12/19 03:09:31;;;;;;;16.48;10.77;;;;;;;;;;4997877;28;20075;-63
2023/12/19 03:11:59;;;;;;;15.23;9.50;;;;;;;;;;4997035;28;20030;-63
2023/12/19 03:14:25;;;;;;;18.45;12.18;;;;;;;;;;5002280;28;20695;-63
2023/12/19 03:16:51;;;;;;;15.23;10.93;;;;;;;;;;5001976;28;20052;-62
2023/12/19 03:19:17;;;;;;;14.45;11.02;;;;;;;;;;5001312;28;20036;-62
2023/12/19 03:21:43;;;;;;;16.40;10.27;;;;;;;;;;5000761;28;20076;-63
2023/12/19 03:24:09;;;;;;;14.80;10.93;;;;;;;;;;5001754;28;20021;-63
2023/12/19 03:26:35;;;;;;;16.30;9.80;;;;;;;;;;5001576;28;20045;-63
2023/12/19 03:29:01;;;;;;;16.38;11.27;;;;;;;;;;5001897;28;20056;-63
2023/12/19 03:31:27;;;;;;;15.80;10.27;;;;;;;;;;4999432;28;20069;-63
2023/12/19 03:33:53;;;;;;;15.18;10.52;;;;;;;;;;5000878;28;20048;-62
2023/12/19 03:36:19;;;;;;;18.17;10.60;;;;;;;;;;5017448;28;20033;-63
2023/12/19 03:38:46;;;;;;;15.95;11.10;;;;;;;;;;5001264;28;20045;-63
2023/12/19 03:41:12;;;;;;;16.30;10.80;;;;;;;;;;5000868;28;20030;-62
2023/12/19 03:43:38;;;;;;;15.75;11.43;;;;;;;;;;4996621;28;20034;-62
2023/12/19 03:46:07;;;;;;;15.27;10.38;;;;;;;;;;5001990;28;20045;-62
2023/12/19 03:48:34;;;;;;;13.52;9.45;;;;;;;;;;5000850;28;21985;-62
2023/12/19 03:51:00;;;;;;;14.75;10.68;;;;;;;;;;5000475;28;20044;-63
2023/12/19 03:53:27;;;;;;;13.98;9.95;;;;;;;;;;5001744;28;20088;-63
2023/12/19 03:55:53;;;;;;;14.00;10.10;;;;;;;;;;5000620;28;20067;-63
2023/12/19 03:58:19;;;;;;;13.90;10.27;;;;;;;;;;5001460;28;20389;-63
2023/12/19 04:00:45;;;;;;;20.85;10.43;;;;;;;;;;5001020;28;20793;-63
2023/12/19 04:03:11;;;;;;;12.90;8.93;;;;;;;;;;5000389;28;20043;-63
2023/12/19 04:05:37;;;;;;;14.18;9.52;;;;;;;;;;5000937;28;20155;-63
2023/12/19 04:08:04;;;;;;;12.52;8.10;;;;;;;;;;5001432;28;20032;-63
2023/12/19 04:10:30;;;;;;;11.95;8.18;;;;;;;;;;5002095;28;20863;-63
2023/12/19 04:12:56;;;;;;;13.95;7.85;;;;;;;;;;5000318;28;20465;-63
2023/12/19 04:15:22;;;;;;;11.55;7.40;;;;;;;;;;5000974;28;20481;-63
2023/12/19 04:17:48;;;;;;;10.43;7.50;;;;;;;;;;5001598;28;20036;-63
2023/12/19 04:20:14;;;;;;;13.40;7.55;;;;;;;;;;5000640;28;20041;-63
2023/12/19 04:22:40;;;;;;;9.40;6.38;;;;;;;;;;4999376;28;20080;-63
2023/12/19 04:25:06;;;;;;;11.05;6.25;;;;;;;;;;4999616;28;20041;-63
2023/12/19 04:27:32;;;;;;;9.68;6.07;;;;;;;;;;5000533;28;20021;-63
2023/12/19 04:29:58;;;;;;;9.38;6.18;;;;;;;;;;5001526;28;20098;-63
2023/12/19 04:32:24;;;;;;;10.73;7.00;;;;;;;;;;4999807;28;20029;-63
2023/12/19 04:34:51;;;;;;;10.73;6.20;;;;;;;;;;5000282;28;20040;-63
2023/12/19 04:37:17;;;;;;;8.82;6.13;;;;;;;;;;5000323;28;20041;-63
2023/12/19 04:39:43;;;;;;;8.57;5.68;;;;;;;;;;5000912;28;20033;-63
2023/12/19 04:42:09;;;;;;;11.20;6.30;;;;;;;;;;5000888;28;20030;-63
2023/12/19 04:44:35;;;;;;;11.05;6.35;;;;;;;;;;5000680;28;20638;-63
2023/12/19 04:47:01;;;;;;;8.73;5.97;;;;;;;;;;5000546;28;20108;-63
2023/12/19 04:49:27;;;;;;;8.50;5.30;;;;;;;;;;5001181;28;20041;-63
2023/12/19 04:51:53;;;;;;;11.10;6.68;;;;;;;;;;4999668;28;20041;-63
2023/12/19 04:54:19;;;;;;;8.30;5.43;;;;;;;;;;5000890;28;20038;-63
2023/12/19 04:56:45;;;;;;;10.52;6.03;;;;;;;;;;5000365;28;20065;-63
2023/12/19 04:59:11;;;;;;;8.82;5.72;;;;;;;;;;5000777;28;20045;-63
2023/12/19 05:01:40;;;;;;;9.07;5.78;;;;;;;;;;4999828;28;20999;-64
2023/12/19 05:04:06;;;;;;;9.48;5.68;;;;;;;;;;4999367;28;20048;-63
2023/12/19 05:06:33;;;;;;;9.27;6.05;;;;;;;;;;4999975;28;20037;-63
2023/12/19 05:08:59;;;;;;;10.13;6.05;;;;;;;;;;5000555;28;20084;-63
2023/12/19 05:11:26;;;;;;;9.43;5.97;;;;;;;;;;4999436;28;20038;-63
2023/12/19 05:13:52;;;;;;;10.65;6.00;;;;;;;;;;5014997;28;20030;-63
2023/12/19 05:16:18;;;;;;;10.48;6.35;;;;;;;;;;5011902;28;20029;-62
2023/12/19 05:18:45;;;;;;;12.15;6.45;;;;;;;;;;4999806;28;20030;-62
2023/12/19 05:21:12;;;;;;;10.13;6.55;;;;;;;;;;4999731;28;20547;-62
2023/12/19 05:23:38;;;;;;;9.75;6.10;;;;;;;;;;4999318;28;20030;-62
2023/12/19 05:26:05;;;;;;;9.63;6.07;;;;;;;;;;4998996;28;20029;-62
2023/12/19 05:28:31;;;;;;;13.40;6.15;;;;;;;;;;4999974;28;20022;-62
2023/12/19 05:30:57;;;;;;;10.13;5.68;;;;;;;;;;4999106;28;20061;-62
2023/12/19 05:33:27;;;;;;;7.68;5.05;;;;;;;;;;4999318;28;20148;-62
2023/12/19 05:35:53;;;;;;;11.07;5.90;;;;;;;;;;4998794;28;20040;-62
2023/12/19 05:38:20;;;;;;;8.57;4.63;;;;;;;;;;4998744;28;20061;-62
2023/12/19 05:40:46;;;;;;;9.23;4.90;;;;;;;;;;4999666;28;20037;-62
2023/12/19 05:43:16;;;;;;;8.68;4.20;;;;;;;;;;4999437;28;20033;-62
2023/12/19 05:45:42;;;;;;;8.32;4.30;;;;;;;;;;4998789;28;20547;-62
2023/12/19 05:48:09;;;;;;;7.55;4.40;;;;;;;;;;4997981;28;20160;-62
2023/12/19 05:50:35;;;;;;;6.03;3.40;;;;;;;;;;4999443;28;20022;-62
2023/12/19 05:53:01;;;;;;;6.80;4.28;;;;;;;;;;4999710;28;20037;-62
2023/12/19 05:55:27;;;;;;;8.68;4.90;;;;;;;;;;4997767;28;20029;-62
2023/12/19 05:57:53;;;;;;;8.27;4.18;;;;;;;;;;4999377;28;20102;-62
2023/12/19 06:00:19;;;;;;;6.72;4.10;;;;;;;;;;4997822;28;20113;-62
2023/12/19 06:02:45;;;;;;;7.07;4.25;;;;;;;;;;4997620;28;20096;-62
2023/12/19 06:05:12;;;;;;;7.68;4.18;;;;;;;;;;4999297;28;20137;-62
2023/12/19 06:07:38;;;;;;;7.10;3.88;;;;;;;;;;4999004;28;20034;-62
2023/12/19 06:10:08;;;;;;;9.25;4.55;;;;;;;;;;4998860;28;20095;-62
2023/12/19 06:12:34;;;;;;;8.32;4.25;;;;;;;;;;4998128;28;20036;-62
2023/12/19 06:15:01;;;;;;;8.25;4.75;;;;;;;;;;4999421;28;20033;-62
2023/12/19 06:17:28;;;;;;;7.00;4.18;;;;;;;;;;4998271;28;20124;-62
2023/12/19 06:19:54;;;;;;;7.47;4.10;;;;;;;;;;4999349;28;20044;-62
2023/12/19 06:22:20;;;;;;;7.03;4.10;;;;;;;;;;4997187;28;20026;-62
2023/12/19 06:24:46;;;;;;;7.53;4.32;;;;;;;;;;4998231;28;20037;-62
2023/12/19 06:27:15;;;;;;;7.18;3.83;;;;;;;;;;4996895;28;20034;-62
2023/12/19 06:29:42;;;;;;;7.50;4.22;;;;;;;;;;4998207;28;20033;-62
2023/12/19 06:32:11;;;;;;;8.65;4.10;;;;;;;;;;4998228;28;20673;-62
2023/12/19 06:34:38;;;;;;;8.63;4.05;;;;;;;;;;4998581;28;20547;-62
2023/12/19 06:37:04;;;;;;;6.38;4.38;;;;;;;;;;4998038;28;20036;-62
2023/12/19 06:39:30;;;;;;;7.90;4.18;;;;;;;;;;4989462;28;20037;-62
2023/12/19 06:41:56;;;;;;;7.25;4.47;;;;;;;;;;4995672;28;20021;-62
2023/12/19 06:44:23;;;;;;;7.80;4.45;;;;;;;;;;4997846;28;20652;-62
2023/12/19 06:46:50;;;;;;;7.80;4.93;;;;;;;;;;4989047;28;20034;-62
2023/12/19 06:49:17;;;;;;;9.38;4.75;;;;;;;;;;4999659;28;20083;-62
2023/12/19 06:51:44;;;;;;;9.07;5.40;;;;;;;;;;5002597;28;20131;-62
2023/12/19 06:54:10;;;;;;;8.15;5.05;;;;;;;;;;5002359;28;20447;-62
2023/12/19 06:56:36;;;;;;;7.80;4.82;;;;;;;;;;5002261;28;20695;-62
2023/12/19 06:59:02;;;;;;;7.75;5.15;;;;;;;;;;5001906;28;20083;-62
2023/12/19 07:01:28;;;;;;;8.48;4.70;;;;;;;;;;5002361;28;21190;-62
2023/12/19 07:03:54;;;;;;;8.07;5.10;;;;;;;;;;5000357;28;20037;-62
2023/12/19 07:06:21;;;;;;;9.13;4.88;;;;;;;;;;5001897;28;20034;-62
2023/12/19 07:08:47;;;;;;;7.78;4.72;;;;;;;;;;5002804;28;20071;-62
2023/12/19 07:11:14;;;;;;;9.70;5.68;;;;;;;;;;5001765;28;20734;-62
2023/12/19 07:13:40;;;;;;;8.23;5.43;;;;;;;;;;5002240;28;20048;-62
2023/12/19 07:16:06;;;;;;;11.10;5.47;;;;;;;;;;5000214;28;21137;-62
2023/12/19 07:18:33;;;;;;;7.55;5.22;;;;;;;;;;5002437;28;20046;-62
2023/12/19 07:20:59;;;;;;;9.57;4.70;;;;;;;;;;5002720;28;20128;-62
2023/12/19 07:23:25;;;;;;;8.07;4.25;;;;;;;;;;4997511;28;20462;-62
2023/12/19 07:25:52;;;;;;;6.72;3.95;;;;;;;;;;5002134;28;20075;-62
2023/12/19 07:28:18;;;;;;;6.68;4.05;;;;;;;;;;5001701;28;20107;-62
2023/12/19 07:30:44;;;;;;;9.75;4.35;;;;;;;;;;5002244;28;20706;-63
2023/12/19 07:33:10;;;;;;;6.65;3.80;;;;;;;;;;4999806;28;20438;-62
2023/12/19 07:35:36;;;;;;;7.10;4.28;;;;;;;;;;5002132;28;21385;-63
2023/12/19 07:38:02;;;;;;;7.28;3.65;;;;;;;;;;5000542;28;20984;-62
2023/12/19 07:40:28;;;;;;;6.95;3.55;;;;;;;;;;5001887;28;21227;-62
2023/12/19 07:42:54;;;;;;;7.57;3.30;;;;;;;;;;5001929;28;20354;-62
2023/12/19 07:45:20;;;;;;;6.18;3.60;;;;;;;;;;5001601;28;20026;-62
2023/12/19 07:47:46;;;;;;;6.20;3.00;;;;;;;;;;5000840;28;20026;-62
2023/12/19 07:50:12;;;;;;;5.70;3.50;;;;;;;;;;5000635;28;20037;-62
2023/12/19 07:52:38;;;;;;;6.32;3.70;;;;;;;;;;5001670;28;21047;-62
2023/12/19 07:55:09;;;;;;;6.68;3.22;;;;;;;;;;5000192;28;20508;-62
2023/12/19 07:57:36;;;;;;;6.00;3.33;;;;;;;;;;4998016;28;20995;-62
2023/12/19 08:00:03;;;;;;;8.88;3.83;;;;;;;;;;4999865;28;20038;-62
2023/12/19 08:02:30;;;;;;;6.93;3.67;;;;;;;;;;5000338;28;20052;-62
2023/12/19 08:04:57;;;;;;;8.82;4.18;;;;;;;;;;4999797;28;20021;-62
2023/12/19 08:07:23;;;;;;;6.72;3.78;;;;;;;;;;4999506;28;20075;-62
2023/12/19 08:09:49;;;;;;;7.53;3.78;;;;;;;;;;5000002;28;20940;-62
2023/12/19 08:12:15;;;;;;;6.95;3.25;;;;;;;;;;5001764;28;20385;-62
2023/12/19 08:14:41;;;;;;;8.90;3.83;;;;;;;;;;4999454;28;20396;-62
2023/12/19 08:17:07;;;;;;;6.20;3.10;;;;;;;;;;5001350;28;20112;-62
2023/12/19 08:19:33;;;;;;;5.05;2.78;;;;;;;;;;5001152;28;20047;-61
2023/12/19 08:22:00;;;;;;;6.68;3.90;;;;;;;;;;5000996;28;20039;-62
2023/12/19 08:24:26;;;;;;;7.75;3.33;;;;;;;;;;5000724;28;20034;-62
2023/12/19 08:26:52;;;;;;;6.88;3.45;;;;;;;;;;4999547;28;21770;-62
2023/12/19 08:29:19;;;;;;;6.40;3.15;;;;;;;;;;5001595;28;20037;-62
2023/12/19 08:31:46;;;;;;;6.13;3.42;;;;;;;;;;5000006;28;20030;-62
2023/12/19 08:34:12;;;;;;;7.13;4.28;;;;;;;;;;5000702;28;20095;-62
2023/12/19 08:36:38;;;;;;;6.70;4.10;;;;;;;;;;4999462;28;20111;-62
2023/12/19 08:39:08;;;;;;;9.02;4.85;;;;;;;;;;5001251;28;20680;-62
2023/12/19 08:41:34;;;;;;;7.25;4.40;;;;;;;;;;4999415;28;20148;-62
2023/12/19 08:44:00;;;;;;;7.22;4.60;;;;;;;;;;5001013;28;20132;-62
2023/12/19 08:46:26;;;;;;;7.38;4.53;;;;;;;;;;5000041;28;20068;-62
2023/12/19 08:48:52;;;;;;;8.25;5.05;;;;;;;;;;5000583;28;20066;-62
2023/12/19 08:51:18;;;;;;;9.20;4.93;;;;;;;;;;5000186;28;20854;-62
2023/12/19 08:53:44;;;;;;;8.30;5.32;;;;;;;;;;4999336;28;20029;-62
2023/12/19 08:56:10;;;;;;;8.48;6.20;;;;;;;;;;4999929;28;20176;-62
2023/12/19 08:58:36;;;;;;;9.25;6.50;;;;;;;;;;5000192;28;20037;-61
2023/12/19 09:01:03;;;;;;;8.82;6.13;;;;;;;;;;4999489;28;20037;-61
2023/12/19 09:03:29;;;;;;;9.50;6.68;;;;;;;;;;5000381;28;20033;-61
2023/12/19 09:05:55;;;;;;;8.93;6.07;;;;;;;;;;4999570;28;21004;-62
2023/12/19 09:08:23;;;;;;;10.05;6.55;;;;;;;;;;5000633;28;20369;-61
2023/12/19 09:10:49;;;;;;;9.35;6.47;;;;;;;;;;4999039;28;20406;-61
2023/12/19 09:13:16;;;;;;;11.05;6.30;;;;;;;;;;5000736;28;20396;-61
2023/12/19 09:15:44;;;;;;;13.00;7.15;;;;;;;;;;5000280;28;20124;-61
2023/12/19 09:18:10;;;;;;;8.80;5.78;;;;;;;;;;4999479;28;20112;-62
2023/12/19 09:20:36;;;;;;;10.70;7.32;;;;;;;;;;5000097;28;20029;-62
2023/12/19 09:23:02;;;;;;;10.57;6.38;;;;;;;;;;5000086;28;20151;-62
2023/12/19 09:25:29;;;;;;;10.68;6.50;;;;;;;;;;5000866;28;20037;-62
2023/12/19 09:27:55;;;;;;;10.60;6.05;;;;;;;;;;5001209;28;20034;-61
2023/12/19 09:30:21;;;;;;;10.23;5.60;;;;;;;;;;5001299;28;21753;-61
2023/12/19 09:32:47;;;;;;;9.63;6.15;;;;;;;;;;4999951;28;20063;-62
2023/12/19 09:35:14;;;;;;;8.23;5.32;;;;;;;;;;4999977;28;20037;-62
2023/12/19 09:37:40;;;;;;;8.23;5.75;;;;;;;;;;5000450;28;20040;-62
2023/12/19 09:40:12;;;;;;;8.52;5.53;;;;;;;;;;5000584;28;21741;-62
2023/12/19 09:42:39;;;;;;;9.15;5.55;;;;;;;;;;4999747;28;20116;-62
2023/12/19 09:45:06;;;;;;;8.68;5.80;;;;;;;;;;5012177;28;20033;-62
2023/12/19 09:47:33;;;;;;;7.97;5.25;;;;;;;;;;5000176;28;20120;-62
2023/12/19 09:50:01;;;;;;;8.48;5.15;;;;;;;;;;5000287;28;20132;-61
2023/12/19 09:52:27;;;;;;;6.88;4.80;;;;;;;;;;4999646;28;20029;-61
2023/12/19 09:54:54;;;;;;;8.32;4.72;;;;;;;;;;4997664;28;20033;-61
2023/12/19 09:57:23;;;;;;;7.65;5.05;;;;;;;;;;4997077;28;20151;-62
2023/12/19 09:59:52;;;;;;;7.45;4.90;;;;;;;;;;4997912;28;20036;-62
2023/12/19 10:02:18;;;;;;;8.52;4.97;;;;;;;;;;4998904;28;20479;-61
2023/12/19 10:04:44;;;;;;;7.80;5.18;;;;;;;;;;4999367;28;20456;-61
2023/12/19 10:07:10;;;;;;;7.35;4.40;;;;;;;;;;4998752;28;20029;-61
2023/12/19 10:09:51;;;;;;;7.35;4.47;;;;;;;;;;4999786;28;20727;-61
2023/12/19 10:12:17;;;;;;;7.10;4.80;;;;;;;;;;4999682;28;20044;-62
2023/12/19 10:14:46;;;;;;;10.60;5.55;;;;;;;;;;4997823;28;20115;-61
2023/12/19 10:17:22;;;;;;;6.97;4.75;;;;;;;;;;4998371;28;20075;-62
2023/12/19 10:19:48;;;;;;;6.30;4.43;;;;;;;;;;4999413;28;20481;-62
2023/12/19 10:22:16;;;;;;;8.45;5.38;;;;;;;;;;4996849;28;20758;-61
2023/12/19 10:24:43;;;;;;;8.02;4.93;;;;;;;;;;5000204;28;20034;-62
2023/12/19 10:27:09;;;;;;;9.98;5.50;;;;;;;;;;5000168;28;20048;-61
2023/12/19 10:29:38;;;;;;;9.88;5.40;;;;;;;;;;4998408;28;20041;-61
2023/12/19 10:32:17;;;;;;;10.15;5.82;;;;;;;;;;4998438;28;20038;-61
2023/12/19 10:34:46;;;;;;;9.20;5.97;;;;;;;;;;4998998;28;20037;-62
2023/12/19 10:37:13;;;;;;;8.80;5.75;;;;;;;;;;4999780;28;20040;-61
2023/12/19 10:39:41;;;;;;;13.45;5.95;;;;;;;;;;5000516;28;20026;-62
2023/12/19 10:42:10;;;;;;;8.32;5.32;;;;;;;;;;4998897;28;20030;-61
2023/12/19 10:44:39;;;;;;;9.25;5.85;;;;;;;;;;4998674;28;20032;-61
2023/12/19 10:47:08;;;;;;;8.77;5.65;;;;;;;;;;5000023;28;20029;-61
2023/12/19 10:49:35;;;;;;;9.32;6.07;;;;;;;;;;4998938;28;20076;-61
2023/12/19 10:52:04;;;;;;;10.27;6.25;;;;;;;;;;4998012;28;20428;-61
2023/12/19 10:54:33;;;;;;;10.48;6.70;;;;;;;;;;4999793;28;20054;-61
2023/12/19 10:57:09;;;;;;;9.23;6.53;;;;;;;;;;4998332;28;20050;-61
2023/12/19 10:59:47;;;;;;;10.10;6.57;;;;;;;;;;4997804;28;20167;-61
2023/12/19 11:02:22;;;;;;;11.07;7.32;;;;;;;;;;4996991;28;20034;-61
2023/12/19 11:04:52;;;;;;;9.70;7.28;;;;;;;;;;4998379;28;20026;-61
2023/12/19 11:07:19;;;;;;;11.77;7.32;;;;;;;;;;5000402;28;20031;-61
2023/12/19 11:09:48;;;;;;;9.88;7.65;;;;;;;;;;4999785;28;20041;-62
2023/12/19 11:12:14;;;;;;;10.10;7.25;;;;;;;;;;4998373;28;20042;-61
2023/12/19 11:14:41;;;;;;;9.98;7.35;;;;;;;;;;4998003;28;20026;-61
2023/12/19 11:17:16;;;;;;;9.95;7.72;;;;;;;;;;4999848;28;20041;-61
2023/12/19 11:19:45;;;;;;;11.18;7.78;;;;;;;;;;4999393;28;20092;-61
2023/12/19 11:22:31;;;;;;;9.40;7.22;;;;;;;;;;5001787;28;20033;-61
2023/12/19 11:25:10;;;;;;;10.93;7.55;;;;;;;;;;4999150;28;20085;-62
2023/12/19 11:27:41;;;;;;;11.65;7.35;;;;;;;;;;4998679;28;20088;-62
2023/12/19 11:30:27;;;;;;;11.30;7.43;;;;;;;;;;4998303;28;20078;-62
2023/12/19 11:32:54;;;;;;;9.73;7.07;;;;;;;;;;4998837;28;20038;-62
2023/12/19 11:35:20;;;;;;;9.27;6.75;;;;;;;;;;5000219;28;20034;-62
2023/12/19 11:37:46;;;;;;;10.18;6.95;;;;;;;;;;5001681;28;20061;-61
2023/12/19 11:40:30;;;;;;;10.95;6.53;;;;;;;;;;5003169;28;20038;-61
2023/12/19 11:42:56;;;;;;;9.45;6.30;;;;;;;;;;5002796;28;20029;-61
2023/12/19 11:45:22;;;;;;;9.65;6.05;;;;;;;;;;5002304;28;20044;-61
2023/12/19 11:47:49;;;;;;;8.20;5.97;;;;;;;;;;5003119;28;20037;-62
2023/12/19 11:50:34;;;;;;;11.15;6.47;;;;;;;;;;5001807;28;20355;-62
2023/12/19 11:53:00;;;;;;;10.95;6.47;;;;;;;;;;5001528;28;20033;-62
2023/12/19 11:55:26;;;;;;;7.95;5.82;;;;;;;;;;5001559;28;20038;-62
2023/12/19 11:57:52;;;;;;;9.00;6.03;;;;;;;;;;5001892;28;20041;-62
2023/12/19 12:00:19;;;;;;;8.35;4.57;;;;;;;;;;5001318;28;20048;-61
2023/12/19 12:02:45;;;;;;;7.28;5.53;;;;;;;;;;4997625;28;20540;-62
2023/12/19 12:05:13;;;;;;;6.95;4.90;;;;;;;;;;5001068;28;20029;-61
2023/12/19 12:07:46;;;;;;;7.75;4.97;;;;;;;;;;5004369;28;20156;-61
2023/12/19 12:10:14;;;;;;;7.90;5.10;;;;;;;;;;5001406;28;20033;-62
2023/12/19 12:12:40;;;;;;;9.18;5.18;;;;;;;;;;5000693;28;20493;-62
2023/12/19 12:15:09;;;;;;;10.80;5.18;;;;;;;;;;5001776;28;20052;-62
2023/12/19 12:17:36;;;;;;;7.03;4.45;;;;;;;;;;5001645;28;20037;-62
2023/12/19 12:20:03;;;;;;;7.72;4.53;;;;;;;;;;5001679;28;20037;-62
2023/12/19 12:22:29;;;;;;;7.47;4.80;;;;;;;;;;5002146;28;20033;-62
2023/12/19 12:24:55;;;;;;;8.38;4.65;;;;;;;;;;5001380;28;20091;-62
2023/12/19 12:27:22;;;;;;;6.53;4.30;;;;;;;;;;5001119;28;20037;-61
2023/12/19 12:29:48;;;;;;;7.20;4.07;;;;;;;;;;5003053;28;20049;-61
2023/12/19 12:32:14;;;;;;;8.88;5.10;;;;;;;;;;5000603;28;20094;-61
2023/12/19 12:34:40;;;;;;;7.20;4.05;;;;;;;;;;5001811;28;20034;-61
2023/12/19 12:37:06;;;;;;;6.45;4.32;;;;;;;;;;5000332;28;20140;-61
2023/12/19 12:39:34;;;;;;;6.78;4.28;;;;;;;;;;5001372;28;20034;-61
2023/12/19 12:42:01;;;;;;;6.63;4.45;;;;;;;;;;4997241;28;20665;-61
2023/12/19 12:44:27;;;;;;;7.50;4.55;;;;;;;;;;4999175;28;20069;-61
2023/12/19 12:46:53;;;;;;;7.85;4.35;;;;;;;;;;4996538;28;20069;-61
2023/12/19 12:49:19;;;;;;;7.82;4.65;;;;;;;;;;4999472;28;20034;-62
2023/12/19 12:51:46;;;;;;;7.50;3.88;;;;;;;;;;4999350;28;20101;-62
2023/12/19 12:54:16;;;;;;;6.65;4.45;;;;;;;;;;5001872;28;20105;-62
2023/12/19 12:56:43;;;;;;;7.47;4.32;;;;;;;;;;4997821;28;20551;-62
2023/12/19 12:59:13;;;;;;;8.07;5.18;;;;;;;;;;4999127;28;20033;-62
2023/12/19 13:01:40;;;;;;;7.40;4.80;;;;;;;;;;4999464;28;20025;-61
2023/12/19 13:04:07;;;;;;;7.88;4.45;;;;;;;;;;4998768;28;20529;-62
2023/12/19 13:06:34;;;;;;;7.40;4.32;;;;;;;;;;4998629;28;20029;-61
2023/12/19 13:09:00;;;;;;;8.05;4.88;;;;;;;;;;4999142;28;20042;-61
2023/12/19 13:11:26;;;;;;;6.85;4.05;;;;;;;;;;4999120;28;21571;-61
2023/12/19 13:13:53;;;;;;;7.28;4.47;;;;;;;;;;4997245;28;20149;-61
2023/12/19 13:16:19;;;;;;;9.60;4.88;;;;;;;;;;4996008;28;20536;-62
2023/12/19 13:18:47;;;;;;;7.78;4.47;;;;;;;;;;4998061;28;20116;-61
2023/12/19 13:21:14;;;;;;;8.90;4.60;;;;;;;;;;5010992;28;20042;-62
2023/12/19 13:23:41;;;;;;;8.52;4.72;;;;;;;;;;4999905;28;20157;-61
2023/12/19 13:26:07;;;;;;;7.55;3.97;;;;;;;;;;4998576;28;20100;-61
2023/12/19 13:28:33;;;;;;;7.25;3.60;;;;;;;;;;4998818;28;20030;-61
2023/12/19 13:30:59;;;;;;;6.38;3.40;;;;;;;;;;4998005;28;20045;-61
2023/12/19 13:33:25;;;;;;;6.63;3.63;;;;;;;;;;4997776;28;20075;-61
2023/12/19 13:35:51;;;;;;;6.97;3.67;;;;;;;;;;4998565;28;20041;-61
2023/12/19 13:38:18;;;;;;;8.30;3.30;;;;;;;;;;4999309;28;20029;-61
2023/12/19 13:40:45;;;;;;;5.20;2.90;;;;;;;;;;4996590;28;20132;-61
2023/12/19 13:43:11;;;;;;;6.60;2.95;;;;;;;;;;4999002;28;20096;-61
2023/12/19 13:45:37;;;;;;;7.25;2.65;;;;;;;;;;4998110;28;20032;-62
2023/12/19 13:48:06;;;;;;;5.43;2.88;;;;;;;;;;4998020;28;20512;-61
2023/12/19 13:50:34;;;;;;;5.57;3.03;;;;;;;;;;4998963;28;20041;-61
2023/12/19 13:53:00;;;;;;;5.75;2.97;;;;;;;;;;4999088;28;20757;-61
2023/12/19 13:55:27;;;;;;;5.18;2.72;;;;;;;;;;4999315;28;20059;-61
2023/12/19 13:57:53;;;;;;;9.30;3.17;;;;;;;;;;4998702;28;21316;-61
2023/12/19 14:00:20;;;;;;;6.70;3.25;;;;;;;;;;4999581;28;20037;-61
2023/12/19 14:02:46;;;;;;;5.85;2.88;;;;;;;;;;4997638;28;20029;-61
2023/12/19 14:05:12;;;;;;;7.32;3.70;;;;;;;;;;4998174;28;20062;-62
2023/12/19 14:07:38;;;;;;;5.35;2.45;;;;;;;;;;4996322;28;20167;-62
2023/12/19 14:10:06;;;;;;;6.07;2.78;;;;;;;;;;4997129;28;20082;-61
2023/12/19 14:12:33;;;;;;;5.28;2.35;;;;;;;;;;4998000;28;20037;-61
2023/12/19 14:14:59;;;;;;;5.10;2.33;;;;;;;;;;4996400;28;20172;-62
2023/12/19 14:17:25;;;;;;;4.38;2.05;;;;;;;;;;4996005;28;20084;-61
2023/12/19 14:19:51;;;;;;;4.68;1.77;;;;;;;;;;5009610;28;20034;-62
2023/12/19 14:22:17;;;;;;;6.95;2.05;;;;;;;;;;4998414;28;20939;-62
2023/12/19 14:24:43;;;;;;;6.25;2.20;;;;;;;;;;4997097;28;20040;-62
2023/12/19 14:27:10;;;;;;;3.22;1.50;;;;;;;;;;4997597;28;20033;-61
2023/12/19 14:29:36;;;;;;;3.72;1.35;;;;;;;;;;4998179;28;21288;-62
2023/12/19 14:32:03;;;;;;;5.13;1.40;;;;;;;;;;4997802;28;21053;-61